Time;durP1;ratioP1;P1;durP2;ratioP2;P2;SDS_P1;SDS_P2;PMS_P1;PMS_P2;Temp;Humidity;BMP_temperature;BMP_pressure;BME280_temperature;BME280_humidity;BME280_pressure;Samples;Min_cycle;Max_cycle;Signal;HPM_P1;HPM_P2
2021/11/09 00:02:18;;;;;;;25.83;5.22;;;;;;;;;;4972212;28;20038;-79
2021/11/09 00:04:56;;;;;;;25.67;5.20;;;;;;;;;;4993912;28;20645;-79
2021/11/09 00:07:48;;;;;;;28.52;5.10;;;;;;;;;;4980553;28;20046;-78
2021/11/09 00:10:18;;;;;;;;;;;;;;;;;;4978677;28;20088;-78
2021/11/09 00:12:51;;;;;;;26.85;4.95;;;;;;;;;;4977195;28;20574;-81
2021/11/09 00:15:19;;;;;;;24.10;4.22;;;;;;;;;;4979787;28;20040;-81
2021/11/09 00:17:50;;;;;;;25.17;4.82;;;;;;;;;;4974551;28;20037;-81
2021/11/09 00:20:25;;;;;;;30.52;5.85;;;;;;;;;;4967785;28;20163;-78
2021/11/09 00:22:54;;;;;;;30.15;5.47;;;;;;;;;;4991139;28;20041;-81
2021/11/09 00:25:22;;;;;;;25.00;5.47;;;;;;;;;;4996623;28;20026;-78
2021/11/09 00:27:50;;;;;;;30.13;5.68;;;;;;;;;;4979865;28;20037;-80
2021/11/09 00:30:18;;;;;;;32.67;5.25;;;;;;;;;;4978896;28;20125;-81
2021/11/09 00:32:48;;;;;;;21.77;5.05;;;;;;;;;;4979916;28;20041;-79
2021/11/09 00:35:18;;;;;;;29.55;5.25;;;;;;;;;;4981003;28;20111;-80
2021/11/09 00:37:47;;;;;;;31.23;6.43;;;;;;;;;;4981187;28;20034;-81
2021/11/09 00:40:24;;;;;;;29.60;5.45;;;;;;;;;;4979245;28;20049;-79
2021/11/09 00:42:53;;;;;;;24.23;5.38;;;;;;;;;;4971386;28;20033;-78
2021/11/09 00:45:21;;;;;;;35.65;5.93;;;;;;;;;;4991277;28;20072;-81
2021/11/09 00:47:47;;;;;;;27.30;5.45;;;;;;;;;;4977651;28;20120;-80
2021/11/09 00:50:19;;;;;;;23.88;4.25;;;;;;;;;;4976296;28;20103;-81
2021/11/09 00:52:46;;;;;;;27.13;5.25;;;;;;;;;;4993208;28;20026;-80
2021/11/09 00:55:15;;;;;;;24.92;4.82;;;;;;;;;;4990191;28;20231;-79
2021/11/09 00:57:45;;;;;;;22.85;5.35;;;;;;;;;;4991854;28;20032;-79
2021/11/09 01:00:16;;;;;;;27.02;5.72;;;;;;;;;;4992494;28;20034;-77
2021/11/09 01:02:44;;;;;;;31.00;5.82;;;;;;;;;;4998088;28;20057;-78
2021/11/09 01:05:14;;;;;;;31.23;5.72;;;;;;;;;;5008988;28;20057;-79
2021/11/09 01:07:42;;;;;;;24.48;5.25;;;;;;;;;;4993028;28;20432;-79
2021/11/09 01:10:08;;;;;;;28.35;5.32;;;;;;;;;;4976716;28;20143;-80
2021/11/09 01:12:38;;;;;;;28.85;5.13;;;;;;;;;;4995324;28;20401;-80
2021/11/09 01:15:08;;;;;;;38.00;5.85;;;;;;;;;;4996082;28;20102;-79
2021/11/09 01:17:36;;;;;;;28.10;5.40;;;;;;;;;;4996458;28;20041;-79
2021/11/09 01:20:07;;;;;;;24.83;5.57;;;;;;;;;;4991584;28;20038;-80
2021/11/09 01:22:34;;;;;;;28.73;5.60;;;;;;;;;;4978258;28;20085;-79
2021/11/09 01:25:13;;;;;;;26.98;5.68;;;;;;;;;;4978694;28;20058;-78
2021/11/09 01:27:42;;;;;;;26.95;5.35;;;;;;;;;;4987085;28;20101;-79
2021/11/09 01:30:14;;;;;;;30.23;6.00;;;;;;;;;;4973063;28;24957;-78
2021/11/09 01:32:42;;;;;;;27.80;5.72;;;;;;;;;;4984079;28;20038;-78
2021/11/09 01:35:11;;;;;;;31.30;5.63;;;;;;;;;;4977664;28;20622;-79
2021/11/09 01:37:39;;;;;;;24.85;4.88;;;;;;;;;;4982598;28;20115;-79
2021/11/09 01:40:08;;;;;;;23.45;4.95;;;;;;;;;;4995334;28;20046;-81
2021/11/09 01:42:35;;;;;;;30.65;6.10;;;;;;;;;;4987315;28;20151;-81
2021/11/09 01:45:03;;;;;;;25.05;5.25;;;;;;;;;;4985056;28;20034;-81
2021/11/09 01:47:30;;;;;;;29.75;6.15;;;;;;;;;;4996605;28;20046;-81
2021/11/09 01:50:00;;;;;;;32.35;5.78;;;;;;;;;;4978902;28;20083;-81
2021/11/09 01:52:28;;;;;;;30.35;5.75;;;;;;;;;;4985825;28;20048;-81
2021/11/09 01:54:55;;;;;;;27.17;6.00;;;;;;;;;;4997010;28;20041;-81
2021/11/09 01:57:23;;;;;;;31.35;6.00;;;;;;;;;;5009939;28;20601;-80
2021/11/09 01:59:52;;;;;;;28.67;5.70;;;;;;;;;;4979414;28;20147;-80
2021/11/09 02:02:20;;;;;;;25.88;5.60;;;;;;;;;;4982872;28;20033;-81
2021/11/09 02:04:50;;;;;;;31.23;6.22;;;;;;;;;;5007367;28;20818;-81
2021/11/09 02:07:21;;;;;;;33.20;6.13;;;;;;;;;;4980404;28;20048;-80
2021/11/09 02:09:53;;;;;;;28.95;6.20;;;;;;;;;;4992582;28;20037;-81
2021/11/09 02:12:22;;;;;;;25.95;4.90;;;;;;;;;;4982721;28;20049;-80
2021/11/09 02:14:49;;;;;;;28.17;5.13;;;;;;;;;;4981371;28;20076;-81
2021/11/09 02:17:21;;;;;;;29.38;6.13;;;;;;;;;;4988165;28;20117;-81
2021/11/09 02:19:49;;;;;;;27.83;5.57;;;;;;;;;;4980730;28;20121;-82
2021/11/09 02:22:18;;;;;;;27.48;6.28;;;;;;;;;;4997096;28;20042;-81
2021/11/09 02:24:44;;;;;;;26.17;5.63;;;;;;;;;;4992264;28;20512;-81
2021/11/09 02:27:10;;;;;;;24.40;5.15;;;;;;;;;;4976155;28;20122;-82
2021/11/09 02:29:39;;;;;;;32.85;5.82;;;;;;;;;;4984851;28;20171;-82
2021/11/09 02:32:09;;;;;;;25.92;5.15;;;;;;;;;;4975936;28;20095;-78
2021/11/09 02:34:36;;;;;;;25.50;5.30;;;;;;;;;;4984853;28;20034;-79
2021/11/09 02:37:06;;;;;;;28.63;5.15;;;;;;;;;;4997428;28;20037;-81
2021/11/09 02:39:33;;;;;;;28.30;5.82;;;;;;;;;;5003067;28;20040;-80
2021/11/09 02:42:00;;;;;;;30.27;5.82;;;;;;;;;;4987232;28;20038;-80
2021/11/09 02:44:29;;;;;;;27.58;5.40;;;;;;;;;;4996276;28;20057;-80
2021/11/09 02:47:01;;;;;;;27.88;5.40;;;;;;;;;;5011403;28;20107;-80
2021/11/09 02:49:42;;;;;;;29.83;5.63;;;;;;;;;;5009853;28;20060;-79
2021/11/09 02:52:17;;;;;;;24.50;5.18;;;;;;;;;;4984752;28;20044;-80
2021/11/09 02:54:48;;;;;;;30.85;5.50;;;;;;;;;;4967789;28;20044;-79
2021/11/09 02:57:25;;;;;;;27.88;5.20;;;;;;;;;;4996482;28;20851;-79
2021/11/09 03:02:38;;;;;;;29.05;5.72;;;;;;;;;;5002608;28;19921;-79
2021/11/09 03:05:28;;;;;;;30.77;6.30;;;;;;;;;;4994692;28;20033;-80
2021/11/09 03:08:02;;;;;;;29.92;5.72;;;;;;;;;;5009839;28;20029;-79
2021/11/09 03:10:36;;;;;;;29.17;5.80;;;;;;;;;;5002004;28;20053;-79
2021/11/09 03:13:03;;;;;;;25.45;4.82;;;;;;;;;;4991992;28;20041;-80
2021/11/09 03:15:32;;;;;;;23.33;4.90;;;;;;;;;;4998576;28;20048;-81
2021/11/09 03:18:15;;;;;;;28.33;5.40;;;;;;;;;;4990118;28;20400;-81
2021/11/09 03:45:36;;;;;;;21.45;4.50;;;;;;;;;;5022666;28;20051;-81
2021/11/09 03:48:12;;;;;;;;;;;;;;;;;;5014874;28;20045;-81
2021/11/09 03:50:40;;;;;;;26.50;5.47;;;;;;;;;;5014524;28;19940;-80
2021/11/09 03:55:44;;;;;;;26.20;5.72;;;;;;;;;;5016834;28;20033;-80
2021/11/09 03:58:35;;;;;;;33.00;5.82;;;;;;;;;;5002100;28;20044;-82
2021/11/09 04:01:22;;;;;;;29.02;5.53;;;;;;;;;;5013672;28;20521;-82
2021/11/09 04:06:43;;;;;;;29.10;5.70;;;;;;;;;;5007829;28;20486;-79
2021/11/09 04:09:30;;;;;;;27.50;5.18;;;;;;;;;;5016077;28;20130;-81
2021/11/09 04:12:35;;;;;;;30.48;5.80;;;;;;;;;;5011581;28;20037;-80
2021/11/09 04:15:07;;;;;;;26.65;5.05;;;;;;;;;;4982138;28;20578;-81
2021/11/09 04:20:32;;;;;;;31.75;5.93;;;;;;;;;;4994255;28;20152;-80
2021/11/09 05:09:42;;;;;;;23.92;4.85;;;;;;;;;;5004137;28;20036;-83
2021/11/09 05:12:11;;;;;;;30.65;5.25;;;;;;;;;;4999239;28;23106;-81
2021/11/09 05:14:39;;;;;;;21.48;4.85;;;;;;;;;;4997542;28;20678;-82
2021/11/09 05:17:06;;;;;;;29.05;5.72;;;;;;;;;;4995912;28;20030;-81
2021/11/09 05:19:32;;;;;;;26.67;4.88;;;;;;;;;;5003513;28;20049;-81
2021/11/09 05:22:01;;;;;;;26.27;5.18;;;;;;;;;;4996810;28;20048;-81
2021/11/09 05:24:29;;;;;;;28.02;5.10;;;;;;;;;;4987234;28;20044;-81
2021/11/09 05:26:55;;;;;;;23.25;5.07;;;;;;;;;;5012534;28;20038;-81
2021/11/09 05:29:24;;;;;;;31.85;5.50;;;;;;;;;;4983015;28;20038;-81
2021/11/09 05:32:03;;;;;;;27.02;5.15;;;;;;;;;;4981481;28;20041;-82
2021/11/09 05:34:30;;;;;;;30.65;5.20;;;;;;;;;;5003565;28;20642;-82
2021/11/09 05:36:58;;;;;;;22.95;5.20;;;;;;;;;;5015861;28;20021;-84
2021/11/09 05:41:59;;;;;;;21.55;4.30;;;;;;;;;;4982658;28;20064;-82
2021/11/09 05:44:28;;;;;;;24.75;4.53;;;;;;;;;;4982580;28;20057;-81
2021/11/09 05:46:56;;;;;;;23.73;4.57;;;;;;;;;;4980617;28;20026;-81
2021/11/09 05:49:25;;;;;;;23.08;4.70;;;;;;;;;;4983653;28;20045;-81
2021/11/09 05:51:54;;;;;;;26.52;4.53;;;;;;;;;;4992382;28;20512;-81
2021/11/09 05:54:22;;;;;;;26.05;4.43;;;;;;;;;;4984913;28;20038;-81
2021/11/09 05:56:54;;;;;;;22.33;4.43;;;;;;;;;;4980131;28;20050;-81
2021/11/09 05:59:23;;;;;;;21.45;5.22;;;;;;;;;;4982357;28;20041;-81
2021/11/09 06:01:52;;;;;;;25.98;5.22;;;;;;;;;;4980568;28;20064;-81
2021/11/09 06:04:21;;;;;;;24.20;4.60;;;;;;;;;;4997291;28;20065;-81
2021/11/09 06:06:49;;;;;;;25.00;4.38;;;;;;;;;;5000323;28;20075;-80
2021/11/09 06:09:19;;;;;;;27.05;4.60;;;;;;;;;;5000130;28;20052;-82
2021/11/09 06:11:46;;;;;;;24.58;4.88;;;;;;;;;;5018087;28;20044;-82
2021/11/09 06:14:12;;;;;;;19.67;4.53;;;;;;;;;;5008793;28;20026;-83
2021/11/09 06:16:40;;;;;;;19.42;4.50;;;;;;;;;;4983763;28;20030;-80
2021/11/09 06:19:08;;;;;;;27.10;5.40;;;;;;;;;;5012137;28;20048;-81
2021/11/09 06:21:35;;;;;;;21.23;5.03;;;;;;;;;;4998833;28;20050;-81
2021/11/09 06:24:04;;;;;;;25.60;5.32;;;;;;;;;;4991314;28;20029;-81
2021/11/09 06:26:30;;;;;;;25.45;5.15;;;;;;;;;;5007064;28;20050;-81
2021/11/09 06:29:00;;;;;;;22.60;4.55;;;;;;;;;;4995506;28;20095;-81
2021/11/09 06:31:29;;;;;;;22.45;4.78;;;;;;;;;;5017204;28;20041;-81
2021/11/09 06:33:55;;;;;;;26.33;5.57;;;;;;;;;;4991231;28;20034;-81
2021/11/09 06:36:24;;;;;;;25.45;5.00;;;;;;;;;;4980302;28;20041;-80
2021/11/09 06:38:55;;;;;;;28.02;6.07;;;;;;;;;;4983583;28;20038;-79
2021/11/09 06:41:22;;;;;;;28.42;5.20;;;;;;;;;;4978688;28;20041;-80
2021/11/09 06:43:58;;;;;;;23.02;4.82;;;;;;;;;;4980856;28;20585;-81
2021/11/09 06:46:28;;;;;;;23.40;4.88;;;;;;;;;;4980804;28;20129;-81
2021/11/09 06:48:55;;;;;;;20.45;5.15;;;;;;;;;;4992526;28;20413;-80
2021/11/09 06:51:23;;;;;;;21.73;4.65;;;;;;;;;;4988344;28;20045;-80
2021/11/09 06:53:50;;;;;;;23.67;5.47;;;;;;;;;;4987586;28;20041;-80
2021/11/09 06:56:20;;;;;;;23.23;4.30;;;;;;;;;;4976559;28;20054;-81
2021/11/09 06:58:50;;;;;;;19.75;4.55;;;;;;;;;;4977943;28;20040;-81
2021/11/09 07:01:18;;;;;;;21.50;4.22;;;;;;;;;;4983324;28;20037;-82
2021/11/09 07:03:45;;;;;;;20.38;4.22;;;;;;;;;;4985002;28;20033;-80
2021/11/09 07:06:14;;;;;;;21.40;4.65;;;;;;;;;;4988468;28;20045;-81
2021/11/09 07:08:42;;;;;;;17.23;4.07;;;;;;;;;;4984445;28;20229;-81
2021/11/09 07:11:09;;;;;;;20.23;3.85;;;;;;;;;;4991998;28;20103;-81
2021/11/09 07:13:37;;;;;;;22.08;4.93;;;;;;;;;;4979073;28;20038;-81
2021/11/09 07:16:04;;;;;;;21.50;4.38;;;;;;;;;;5008318;28;20128;-80
2021/11/09 07:18:32;;;;;;;19.27;3.95;;;;;;;;;;4988724;28;20046;-80
2021/11/09 07:21:02;;;;;;;17.55;3.95;;;;;;;;;;4981733;28;20541;-81
2021/11/09 07:23:28;;;;;;;20.33;4.25;;;;;;;;;;4985254;28;20037;-81
2021/11/09 07:25:57;;;;;;;21.23;4.93;;;;;;;;;;4994478;28;20116;-82
2021/11/09 07:28:24;;;;;;;22.90;5.00;;;;;;;;;;4977350;28;20034;-83
2021/11/09 07:30:59;;;;;;;17.92;3.80;;;;;;;;;;4975483;28;20038;-82
2021/11/09 07:33:26;;;;;;;17.55;4.28;;;;;;;;;;4980399;28;20038;-81
2021/11/09 07:35:54;;;;;;;21.73;4.28;;;;;;;;;;4976988;28;20034;-81
2021/11/09 07:38:23;;;;;;;19.52;4.47;;;;;;;;;;4977486;28;20046;-82
2021/11/09 07:40:54;;;;;;;21.58;4.30;;;;;;;;;;4993734;28;20040;-81
2021/11/09 07:43:23;;;;;;;18.95;4.00;;;;;;;;;;5004746;28;20039;-81
2021/11/09 07:45:53;;;;;;;20.27;3.67;;;;;;;;;;4978549;28;20129;-81
2021/11/09 07:48:22;;;;;;;17.92;3.97;;;;;;;;;;4985324;28;20130;-81
2021/11/09 07:50:51;;;;;;;17.95;4.13;;;;;;;;;;5000746;28;20347;-81
2021/11/09 07:53:22;;;;;;;14.68;3.47;;;;;;;;;;4975460;28;20030;-81
2021/11/09 07:58:45;;;;;;;17.77;3.60;;;;;;;;;;4980471;28;20048;-82
2021/11/09 08:01:17;;;;;;;21.48;4.28;;;;;;;;;;4960179;28;20065;-82
2021/11/09 08:03:50;;;;;;;21.25;4.22;;;;;;;;;;4979598;28;20580;-81
2021/11/09 08:06:21;;;;;;;22.95;3.88;;;;;;;;;;4978341;28;20109;-82
2021/11/09 08:09:03;;;;;;;20.92;4.45;;;;;;;;;;4985942;28;20545;-81
2021/11/09 08:11:36;;;;;;;22.63;5.22;;;;;;;;;;5001456;28;20048;-80
2021/11/09 08:14:03;;;;;;;21.95;6.38;;;;;;;;;;4990234;28;20033;-80
2021/11/09 08:16:32;;;;;;;30.17;8.68;;;;;;;;;;4966474;28;20563;-83
2021/11/09 08:19:00;;;;;;;27.00;7.68;;;;;;;;;;4982604;28;20042;-80
2021/11/09 08:21:27;;;;;;;30.10;6.70;;;;;;;;;;4959761;28;20099;-80
2021/11/09 08:23:57;;;;;;;21.60;5.25;;;;;;;;;;4987173;28;20045;-80
2021/11/09 08:26:27;;;;;;;19.92;5.00;;;;;;;;;;4996360;28;20073;-81
2021/11/09 08:28:55;;;;;;;18.50;4.80;;;;;;;;;;4996875;28;20037;-81
2021/11/09 08:31:25;;;;;;;19.52;4.25;;;;;;;;;;4973712;28;20044;-81
2021/11/09 08:33:56;;;;;;;21.50;5.05;;;;;;;;;;4981020;28;20117;-82
2021/11/09 08:36:24;;;;;;;19.05;4.22;;;;;;;;;;5001305;28;20724;-81
2021/11/09 08:38:52;;;;;;;19.95;4.18;;;;;;;;;;5000561;28;20040;-81
2021/11/09 08:41:26;;;;;;;17.65;3.75;;;;;;;;;;5005942;28;20184;-81
2021/11/09 08:44:05;;;;;;;19.13;4.30;;;;;;;;;;5019871;28;20037;-81
2021/11/09 08:46:45;;;;;;;20.25;4.15;;;;;;;;;;5015952;28;20044;-81
2021/11/09 08:49:14;;;;;;;20.83;4.40;;;;;;;;;;5015700;28;20133;-81
2021/11/09 08:51:43;;;;;;;23.65;4.50;;;;;;;;;;5007941;28;20041;-81
2021/11/09 08:54:14;;;;;;;24.00;4.50;;;;;;;;;;4996455;28;20041;-81
2021/11/09 08:57:06;;;;;;;25.20;5.88;;;;;;;;;;5018905;28;20051;-80
2021/11/09 09:05:10;;;;;;;26.30;5.28;;;;;;;;;;5016181;28;20035;-80
2021/11/09 09:07:39;;;;;;;26.52;5.82;;;;;;;;;;5016271;28;20024;-81
2021/11/09 09:10:09;;;;;;;29.15;5.40;;;;;;;;;;5014321;28;20106;-83
2021/11/09 09:12:40;;;;;;;30.20;5.43;;;;;;;;;;5017592;28;20804;-81
2021/11/09 09:15:09;;;;;;;29.52;5.85;;;;;;;;;;4985124;28;20040;-81
2021/11/09 09:17:37;;;;;;;28.95;5.65;;;;;;;;;;5016014;28;20048;-81
2021/11/09 09:20:37;;;;;;;26.33;5.60;;;;;;;;;;4984217;28;20030;-81
2021/11/09 09:23:11;;;;;;;28.85;5.88;;;;;;;;;;4976615;28;20045;-81
2021/11/09 09:52:07;;;;;;;31.20;6.82;;;;;;;;;;4978279;28;20034;-80
2021/11/09 09:56:01;;;;;;;28.88;4.78;;;;;;;;;;5014355;28;20029;-82
2021/11/09 09:58:30;;;;;;;26.70;5.50;;;;;;;;;;4978631;28;20077;-80
2021/11/09 10:00:58;;;;;;;30.00;5.90;;;;;;;;;;4995317;28;20034;-80
2021/11/09 10:03:36;;;;;;;27.52;5.57;;;;;;;;;;4966569;28;20038;-80
2021/11/09 10:06:04;;;;;;;23.27;4.40;;;;;;;;;;4997504;28;20508;-80
2021/11/09 10:08:55;;;;;;;27.88;5.70;;;;;;;;;;4988581;28;20486;-80
2021/11/09 10:11:35;;;;;;;27.90;5.10;;;;;;;;;;5010630;28;20438;-81
2021/11/09 10:14:06;;;;;;;25.20;5.20;;;;;;;;;;4989369;28;20423;-81
2021/11/09 10:16:38;;;;;;;26.60;5.03;;;;;;;;;;5005591;28;20088;-80
2021/11/09 10:19:09;;;;;;;27.55;5.38;;;;;;;;;;4994405;28;20038;-81
2021/11/09 10:21:41;;;;;;;30.60;5.50;;;;;;;;;;5001550;28;20111;-80
2021/11/09 10:24:27;;;;;;;24.88;4.85;;;;;;;;;;4998003;28;20037;-82
2021/11/09 10:26:57;;;;;;;31.60;5.25;;;;;;;;;;5013557;28;20034;-79
2021/11/09 10:29:45;;;;;;;23.95;4.93;;;;;;;;;;5004273;28;20088;-79
2021/11/09 10:32:17;;;;;;;28.33;5.32;;;;;;;;;;4990130;28;20041;-80
2021/11/09 10:34:51;;;;;;;29.13;5.63;;;;;;;;;;4997277;28;20034;-82
2021/11/09 10:37:26;;;;;;;25.90;5.28;;;;;;;;;;5002665;28;20037;-82
2021/11/09 10:39:55;;;;;;;23.42;5.50;;;;;;;;;;4994699;28;20034;-81
2021/11/09 10:42:23;;;;;;;23.50;5.40;;;;;;;;;;5012617;28;20048;-81
2021/11/09 10:44:56;;;;;;;22.88;5.25;;;;;;;;;;4998204;28;20791;-81
2021/11/09 10:47:34;;;;;;;25.60;5.25;;;;;;;;;;4981514;28;20516;-82
2021/11/09 10:50:09;;;;;;;30.08;5.95;;;;;;;;;;4999696;28;20044;-80
2021/11/09 10:52:38;;;;;;;26.80;5.43;;;;;;;;;;4983533;28;20045;-82
2021/11/09 10:55:16;;;;;;;24.83;5.47;;;;;;;;;;5011232;28;20037;-79
2021/11/09 10:58:00;;;;;;;26.90;5.32;;;;;;;;;;5000525;28;20160;-80
2021/11/09 11:03:16;;;;;;;29.27;5.63;;;;;;;;;;5007475;28;22841;-80
2021/11/09 11:06:27;;;;;;;25.50;5.63;;;;;;;;;;4986069;28;20052;-80
2021/11/09 11:09:18;;;;;;;29.58;5.45;;;;;;;;;;4976408;28;20065;-80
2021/11/09 11:11:48;;;;;;;25.00;5.30;;;;;;;;;;4980922;28;20378;-80
2021/11/09 11:14:26;;;;;;;27.13;5.35;;;;;;;;;;4987145;28;20129;-80
2021/11/09 11:16:59;;;;;;;27.13;6.00;;;;;;;;;;4995144;28;20114;-80
2021/11/09 11:19:30;;;;;;;31.13;5.47;;;;;;;;;;4996016;28;20072;-80
2021/11/09 11:21:58;;;;;;;29.45;6.43;;;;;;;;;;4998364;28;20052;-80
2021/11/09 11:24:27;;;;;;;25.15;5.55;;;;;;;;;;5014407;28;20056;-80
2021/11/09 11:26:55;;;;;;;25.77;5.25;;;;;;;;;;4982560;28;20667;-79
2021/11/09 11:29:32;;;;;;;26.70;5.32;;;;;;;;;;4976758;28;20041;-80
2021/11/09 11:32:01;;;;;;;23.42;5.30;;;;;;;;;;5008505;28;20044;-80
2021/11/09 11:34:29;;;;;;;22.90;4.60;;;;;;;;;;4995474;28;20044;-80
2021/11/09 11:36:58;;;;;;;22.83;4.88;;;;;;;;;;4973394;28;20313;-81
2021/11/09 11:39:27;;;;;;;19.85;4.95;;;;;;;;;;4982999;28;20131;-80
2021/11/09 11:42:02;;;;;;;23.67;4.72;;;;;;;;;;4979778;28;20041;-81
2021/11/09 11:44:32;;;;;;;29.20;5.97;;;;;;;;;;4974259;28;20076;-79
2021/11/09 11:47:00;;;;;;;20.77;4.90;;;;;;;;;;4990974;28;20129;-81
2021/11/09 11:49:32;;;;;;;26.10;5.53;;;;;;;;;;5000854;28;20034;-81
2021/11/09 11:51:59;;;;;;;26.15;5.28;;;;;;;;;;4980777;28;20050;-80
2021/11/09 11:55:00;;;;;;;24.42;5.40;;;;;;;;;;4978299;28;20041;-81
2021/11/09 11:57:47;;;;;;;22.00;4.82;;;;;;;;;;4980347;28;20507;-81
2021/11/09 12:00:28;;;;;;;26.73;4.93;;;;;;;;;;4972415;28;20050;-81
2021/11/09 12:02:56;;;;;;;25.67;6.88;;;;;;;;;;4992802;28;20512;-82
2021/11/09 12:05:36;;;;;;;21.80;4.35;;;;;;;;;;4984378;28;20048;-81
2021/11/09 12:08:04;;;;;;;23.95;5.30;;;;;;;;;;4992431;28;20524;-81
2021/11/09 12:10:52;;;;;;;26.30;4.88;;;;;;;;;;4980087;28;20729;-81
2021/11/09 12:13:21;;;;;;;29.83;5.65;;;;;;;;;;4990118;28;20554;-80
2021/11/09 12:16:05;;;;;;;25.75;5.28;;;;;;;;;;4976155;28;20068;-79
2021/11/09 12:18:43;;;;;;;24.40;5.25;;;;;;;;;;4983618;28;20115;-80
2021/11/09 12:21:18;;;;;;;29.40;5.97;;;;;;;;;;4991227;28;21802;-79
2021/11/09 12:24:05;;;;;;;26.13;6.32;;;;;;;;;;4994906;28;20867;-79
2021/11/09 12:26:41;;;;;;;24.38;5.78;;;;;;;;;;4983812;28;20038;-79
2021/11/09 12:29:26;;;;;;;23.27;4.90;;;;;;;;;;4979931;28;20033;-79
2021/11/09 12:31:55;;;;;;;30.77;6.78;;;;;;;;;;4990488;28;20037;-80
2021/11/09 12:34:42;;;;;;;30.73;5.95;;;;;;;;;;4998868;28;20465;-80
2021/11/09 12:37:20;;;;;;;22.58;5.68;;;;;;;;;;5012654;28;20914;-79
2021/11/09 12:39:48;;;;;;;30.67;5.90;;;;;;;;;;5012623;28;20070;-80
2021/11/09 12:42:15;;;;;;;32.20;5.53;;;;;;;;;;5012105;28;20119;-80
2021/11/09 12:44:44;;;;;;;29.42;5.78;;;;;;;;;;5009219;28;20029;-79
2021/11/09 12:47:13;;;;;;;23.90;4.97;;;;;;;;;;5008073;28;22068;-79
2021/11/09 12:49:40;;;;;;;30.02;6.22;;;;;;;;;;4956882;28;20042;-79
2021/11/09 12:52:07;;;;;;;23.98;4.90;;;;;;;;;;4953605;28;20046;-79
2021/11/09 12:54:34;;;;;;;23.13;5.70;;;;;;;;;;4962738;28;20049;-79
2021/11/09 12:57:04;;;;;;;22.90;5.13;;;;;;;;;;4951121;28;20064;-81
2021/11/09 12:59:54;;;;;;;23.63;4.55;;;;;;;;;;4956975;28;20042;-80
2021/11/09 13:02:40;;;;;;;25.58;4.68;;;;;;;;;;4958538;28;20038;-78
2021/11/09 13:05:23;;;;;;;20.95;4.93;;;;;;;;;;4952813;28;20177;-79
2021/11/09 13:07:53;;;;;;;19.80;4.40;;;;;;;;;;4956430;28;20034;-79
2021/11/09 13:10:22;;;;;;;21.13;5.07;;;;;;;;;;4944808;28;20103;-80
2021/11/09 13:12:54;;;;;;;26.73;5.53;;;;;;;;;;4938076;28;20101;-80
2021/11/09 13:15:22;;;;;;;23.70;5.18;;;;;;;;;;4959214;28;20047;-80
2021/11/09 13:17:58;;;;;;;24.88;5.07;;;;;;;;;;4956939;28;20047;-80
2021/11/09 13:23:00;;;;;;;26.02;5.07;;;;;;;;;;4961051;28;20684;-79
2021/11/09 13:25:48;;;;;;;22.23;4.47;;;;;;;;;;4935901;28;20062;-80
2021/11/09 13:28:24;;;;;;;19.92;4.53;;;;;;;;;;4938934;28;20093;-80
2021/11/09 13:30:55;;;;;;;23.77;4.87;;;;;;;;;;4957965;28;20065;-79
2021/11/09 13:33:25;;;;;;;23.80;5.13;;;;;;;;;;4950305;28;20399;-79
2021/11/09 13:35:53;;;;;;;19.88;5.07;;;;;;;;;;4956091;28;20077;-80
2021/11/09 13:38:38;;;;;;;22.80;4.78;;;;;;;;;;4958672;28;20725;-79
2021/11/09 13:41:18;;;;;;;22.42;4.82;;;;;;;;;;4988607;28;20052;-79
2021/11/09 13:43:51;;;;;;;23.63;4.38;;;;;;;;;;5001174;28;20030;-80
2021/11/09 13:46:20;;;;;;;26.75;5.30;;;;;;;;;;4981788;28;20044;-81
2021/11/09 13:48:49;;;;;;;27.10;5.13;;;;;;;;;;4996998;28;20037;-79
2021/11/09 13:51:57;;;;;;;25.63;5.32;;;;;;;;;;4981913;28;20143;-79
2021/11/09 13:54:41;;;;;;;21.60;5.35;;;;;;;;;;4977121;28;20778;-81
2021/11/09 13:57:10;;;;;;;17.90;4.40;;;;;;;;;;4975696;28;20044;-78
2021/11/09 13:59:38;;;;;;;29.00;5.65;;;;;;;;;;4978881;28;20045;-80
2021/11/09 14:05:11;;;;;;;23.20;4.68;;;;;;;;;;4979933;28;20603;-80
2021/11/09 14:07:58;;;;;;;27.00;5.20;;;;;;;;;;4973545;28;20145;-80
2021/11/09 14:13:39;;;;;;;21.55;4.70;;;;;;;;;;4974157;28;20116;-78
2021/11/09 14:16:40;;;;;;;27.10;5.43;;;;;;;;;;4976227;28;20127;-79
2021/11/09 14:19:08;;;;;;;26.10;5.43;;;;;;;;;;4976775;28;20525;-79
2021/11/09 14:21:46;;;;;;;26.95;5.35;;;;;;;;;;4989932;28;20045;-81
2021/11/09 14:24:26;;;;;;;27.17;5.03;;;;;;;;;;4982995;28;21548;-81
2021/11/09 14:27:11;;;;;;;24.40;5.28;;;;;;;;;;4975721;28;20094;-80
2021/11/09 14:29:40;;;;;;;27.05;5.93;;;;;;;;;;4986722;28;20096;-79
2021/11/09 14:32:17;;;;;;;25.25;5.05;;;;;;;;;;4973595;28;20465;-79
2021/11/09 14:35:08;;;;;;;21.13;4.18;;;;;;;;;;4995246;28;20626;-78
2021/11/09 14:38:01;;;;;;;24.88;5.15;;;;;;;;;;5002072;28;20063;-79
2021/11/09 14:40:30;;;;;;;22.50;5.47;;;;;;;;;;4981575;28;20045;-79
2021/11/09 14:43:06;;;;;;;28.02;4.90;;;;;;;;;;4974523;28;20072;-79
2021/11/09 14:45:43;;;;;;;27.77;5.15;;;;;;;;;;4998303;28;20037;-80
2021/11/09 14:48:15;;;;;;;27.73;4.80;;;;;;;;;;4990409;28;20042;-79
2021/11/09 14:51:05;;;;;;;23.25;4.55;;;;;;;;;;4984702;28;20057;-78
2021/11/09 14:53:35;;;;;;;24.23;4.93;;;;;;;;;;5006604;28;21058;-78
2021/11/09 14:56:07;;;;;;;30.45;5.13;;;;;;;;;;4993718;28;20084;-81
2021/11/09 14:58:42;;;;;;;27.65;4.97;;;;;;;;;;4979794;28;20567;-78
2021/11/09 15:01:29;;;;;;;25.02;4.65;;;;;;;;;;4985756;28;20041;-80
2021/11/09 15:04:18;;;;;;;22.42;3.90;;;;;;;;;;4997003;28;20110;-81
2021/11/09 15:12:19;;;;;;;24.73;5.22;;;;;;;;;;4976122;28;20058;-79
2021/11/09 15:26:08;;;;;;;32.63;5.65;;;;;;;;;;4978497;28;20041;-79
2021/11/09 15:29:00;;;;;;;33.03;5.32;;;;;;;;;;4991015;28;20124;-79
2021/11/09 15:37:25;;;;;;;23.73;4.38;;;;;;;;;;4938518;28;20166;-79
2021/11/09 15:39:59;;;;;;;20.27;4.43;;;;;;;;;;4952353;28;20090;-80
2021/11/09 15:42:25;;;;;;;20.42;4.30;;;;;;;;;;4956138;28;20066;-80
2021/11/09 15:44:53;;;;;;;29.80;4.55;;;;;;;;;;4971853;28;20560;-80
2021/11/09 15:47:20;;;;;;;27.92;4.88;;;;;;;;;;4974954;28;20254;-79
2021/11/09 15:49:51;;;;;;;28.25;4.50;;;;;;;;;;4969510;28;20034;-79
2021/11/09 15:52:18;;;;;;;22.08;4.45;;;;;;;;;;4974029;28;20034;-80
2021/11/09 15:54:45;;;;;;;20.85;4.45;;;;;;;;;;4952062;28;20073;-79
2021/11/09 15:57:12;;;;;;;27.63;4.65;;;;;;;;;;4972502;28;21113;-79
2021/11/09 15:59:39;;;;;;;25.30;4.90;;;;;;;;;;4972835;28;20133;-80
2021/11/09 16:02:08;;;;;;;26.05;5.57;;;;;;;;;;4971996;28;20080;-80
2021/11/09 16:04:43;;;;;;;28.45;5.38;;;;;;;;;;4977014;28;20048;-80
2021/11/09 16:07:12;;;;;;;30.27;5.87;;;;;;;;;;4973617;28;20177;-80
2021/11/09 16:09:45;;;;;;;28.95;5.38;;;;;;;;;;4976862;28;20286;-80
2021/11/09 16:12:18;;;;;;;20.65;4.75;;;;;;;;;;4981293;28;20864;-81
2021/11/09 16:14:45;;;;;;;25.67;5.28;;;;;;;;;;4997688;28;20041;-81
2021/11/09 16:17:14;;;;;;;24.92;4.75;;;;;;;;;;4992873;28;20650;-81
2021/11/09 16:19:42;;;;;;;20.27;4.55;;;;;;;;;;4995481;28;20883;-81
2021/11/09 16:22:16;;;;;;;20.27;4.40;;;;;;;;;;5005975;28;21087;-80
2021/11/09 16:24:43;;;;;;;24.02;4.30;;;;;;;;;;4996722;28;20092;-80
2021/11/09 16:27:13;;;;;;;23.98;4.40;;;;;;;;;;4992443;28;20032;-80
2021/11/09 16:29:59;;;;;;;20.10;4.13;;;;;;;;;;4992984;28;20046;-80
2021/11/09 16:32:26;;;;;;;25.30;4.80;;;;;;;;;;5016788;28;20180;-81
2021/11/09 16:34:57;;;;;;;21.40;4.20;;;;;;;;;;4996746;28;20480;-84
2021/11/09 16:37:25;;;;;;;21.52;4.60;;;;;;;;;;5000661;28;20037;-86
2021/11/09 16:40:07;;;;;;;25.80;4.38;;;;;;;;;;4999257;28;20055;-84
2021/11/09 16:42:38;;;;;;;23.05;4.85;;;;;;;;;;5008358;28;20049;-84
2021/11/09 16:45:06;;;;;;;20.27;4.43;;;;;;;;;;5015042;28;20037;-85
2021/11/09 16:47:34;;;;;;;19.45;3.90;;;;;;;;;;5005221;28;20033;-84
2021/11/09 16:52:49;;;;;;;18.63;3.63;;;;;;;;;;5005569;28;20061;-84
2021/11/09 16:55:40;;;;;;;19.50;3.67;;;;;;;;;;5004362;28;20128;-83
2021/11/09 18:15:16;;;;;;;12.02;2.40;;;;;;;;;;5002588;28;20140;-84
2021/11/09 18:20:34;;;;;;;14.18;3.33;;;;;;;;;;5010294;28;20083;-84
2021/11/09 18:23:02;;;;;;;15.05;3.10;;;;;;;;;;5005073;28;20150;-84
2021/11/09 18:25:30;;;;;;;14.35;2.85;;;;;;;;;;4989345;28;20021;-84
2021/11/09 18:27:57;;;;;;;14.48;3.13;;;;;;;;;;5002194;28;20041;-83
2021/11/09 18:30:44;;;;;;;11.68;3.50;;;;;;;;;;4986170;28;20637;-82
2021/11/09 18:33:11;;;;;;;12.15;4.88;;;;;;;;;;5005690;28;20041;-83
2021/11/09 18:35:40;;;;;;;10.75;3.05;;;;;;;;;;4987920;28;20040;-83
2021/11/09 18:38:08;;;;;;;12.45;4.45;;;;;;;;;;5004522;28;20061;-83
2021/11/09 18:40:36;;;;;;;11.23;2.60;;;;;;;;;;5008010;28;20037;-83
2021/11/09 18:43:08;;;;;;;13.45;2.67;;;;;;;;;;4981566;28;20092;-84
2021/11/09 18:45:36;;;;;;;10.02;2.72;;;;;;;;;;4996178;28;20120;-84
2021/11/09 18:48:05;;;;;;;18.50;3.95;;;;;;;;;;4996729;28;20041;-83
2021/11/09 18:50:34;;;;;;;16.38;4.30;;;;;;;;;;5007923;28;20338;-84
2021/11/09 18:53:02;;;;;;;17.80;4.97;;;;;;;;;;5026326;28;20038;-85
2021/11/09 18:55:31;;;;;;;13.10;3.20;;;;;;;;;;5031093;28;20049;-84
2021/11/09 18:57:59;;;;;;;10.52;2.85;;;;;;;;;;5023842;28;20033;-84
2021/11/09 19:00:29;;;;;;;11.15;2.95;;;;;;;;;;5028469;28;20048;-83